Time;durP1;ratioP1;P1;durP2;ratioP2;P2;SDS_P1;SDS_P2;PMS_P1;PMS_P2;Temp;Humidity;BMP_temperature;BMP_pressure;BME280_temperature;BME280_humidity;BME280_pressure;Samples;Min_cycle;Max_cycle;Signal;HPM_P1;HPM_P2
2022/01/07 00:00:18;;;;;;;18.40;6.15;;;3.50;99.90;;;;;;5092627;28;20122;-85
2022/01/07 00:02:45;;;;;;;18.95;6.60;;;3.50;99.90;;;;;;5098533;28;20118;-84
2022/01/07 00:05:12;;;;;;;15.00;6.38;;;3.50;99.90;;;;;;5098501;28;20135;-85
2022/01/07 00:07:38;;;;;;;13.68;5.90;;;3.50;99.90;;;;;;5093381;27;20039;-85
2022/01/07 00:10:06;;;;;;;20.60;6.15;;;3.40;99.90;;;;;;5096601;28;20047;-85
2022/01/07 00:12:32;;;;;;;14.73;6.45;;;3.40;99.90;;;;;;5113265;28;20043;-85
2022/01/07 00:14:57;;;;;;;16.45;6.55;;;3.30;99.90;;;;;;5110642;28;20523;-83
2022/01/07 00:17:23;;;;;;;23.05;6.55;;;3.30;99.90;;;;;;5097258;28;20408;-85
2022/01/07 00:19:48;;;;;;;15.43;5.75;;;3.30;99.90;;;;;;5106261;28;20043;-85
2022/01/07 00:22:14;;;;;;;12.77;5.50;;;3.20;99.90;;;;;;5073009;28;20036;-84
2022/01/07 00:24:40;;;;;;;14.23;5.97;;;3.30;99.90;;;;;;5092751;28;20083;-85
2022/01/07 00:27:06;;;;;;;16.52;5.97;;;3.20;99.90;;;;;;5104436;27;20040;-85
2022/01/07 00:29:31;;;;;;;14.10;4.78;;;3.10;99.90;;;;;;5093494;28;20478;-86
2022/01/07 00:31:57;;;;;;;22.08;6.22;;;3.10;99.90;;;;;;5074411;28;20105;-84
2022/01/07 00:34:22;;;;;;;9.27;5.80;;;3.10;99.90;;;;;;5102975;28;20040;-86
2022/01/07 00:36:48;;;;;;;12.55;6.88;;;3.00;99.90;;;;;;5100111;28;20024;-85
2022/01/07 00:39:13;;;;;;;20.75;5.68;;;3.00;99.90;;;;;;5111798;27;20528;-77
2022/01/07 00:41:39;;;;;;;12.73;5.57;;;2.90;99.90;;;;;;5096757;28;20062;-86
2022/01/07 00:44:04;;;;;;;19.85;8.15;;;3.00;99.90;;;;;;5094975;28;20414;-84
2022/01/07 00:46:30;;;;;;;10.98;5.75;;;3.00;99.90;;;;;;5079941;28;20059;-84
2022/01/07 00:48:56;;;;;;;15.05;6.25;;;2.90;99.90;;;;;;5092461;28;20593;-85
2022/01/07 00:51:22;;;;;;;13.90;5.93;;;2.90;99.90;;;;;;5091222;27;20040;-84
2022/01/07 00:53:48;;;;;;;22.67;7.40;;;2.90;99.90;;;;;;5114039;28;20130;-86
2022/01/07 00:56:14;;;;;;;18.40;6.07;;;2.80;99.90;;;;;;5101874;28;20039;-76
2022/01/07 00:58:39;;;;;;;12.63;6.32;;;2.90;99.90;;;;;;5076049;28;20055;-86
2022/01/07 01:01:05;;;;;;;13.80;5.72;;;2.90;99.90;;;;;;5078471;28;20405;-86
2022/01/07 01:03:31;;;;;;;18.52;6.28;;;2.80;99.90;;;;;;5059716;28;20135;-86
2022/01/07 01:05:58;;;;;;;14.52;6.40;;;2.90;99.90;;;;;;5097986;28;20050;-85
2022/01/07 01:08:25;;;;;;;14.50;6.18;;;2.90;99.90;;;;;;5115707;28;20046;-85
2022/01/07 01:10:51;;;;;;;15.23;7.05;;;3.00;99.90;;;;;;5121987;28;20107;-84
2022/01/07 01:13:16;;;;;;;22.48;7.25;;;2.90;99.90;;;;;;5124370;28;20040;-82
2022/01/07 01:15:42;;;;;;;14.88;7.40;;;2.90;99.90;;;;;;5133390;27;20055;-83
2022/01/07 01:18:08;;;;;;;18.52;5.50;;;2.90;99.90;;;;;;5132969;27;20039;-83
2022/01/07 01:20:33;;;;;;;15.68;6.13;;;2.90;99.90;;;;;;5112388;28;20465;-84
2022/01/07 01:22:59;;;;;;;22.25;8.60;;;2.90;99.90;;;;;;5093051;28;20138;-85
2022/01/07 01:25:25;;;;;;;13.25;7.70;;;2.80;99.90;;;;;;5092408;28;20101;-86
2022/01/07 01:27:51;;;;;;;16.38;8.18;;;2.90;99.90;;;;;;5077184;28;20470;-87
2022/01/07 01:30:17;;;;;;;24.50;6.57;;;2.80;99.90;;;;;;5088565;28;20099;-86
2022/01/07 01:32:44;;;;;;;18.80;7.35;;;2.80;99.90;;;;;;5106709;28;20035;-84
2022/01/07 01:35:12;;;;;;;22.58;8.95;;;2.80;99.90;;;;;;5079682;28;20040;-84
2022/01/07 01:37:37;;;;;;;23.13;7.90;;;2.80;99.90;;;;;;5072498;28;20119;-84
2022/01/07 01:40:05;;;;;;;26.65;9.65;;;2.80;99.90;;;;;;5107818;28;20158;-85
2022/01/07 01:42:31;;;;;;;19.73;8.85;;;2.70;99.90;;;;;;5105153;28;20044;-86
2022/01/07 01:44:56;;;;;;;16.17;8.20;;;2.70;99.90;;;;;;5091123;28;20067;-86
2022/01/07 01:47:22;;;;;;;16.15;8.50;;;2.70;99.90;;;;;;5097029;28;20043;-85
2022/01/07 01:49:48;;;;;;;16.30;9.40;;;2.70;99.90;;;;;;5107571;28;20085;-85
2022/01/07 01:52:14;;;;;;;14.15;7.57;;;2.60;99.90;;;;;;5101385;28;20035;-79
2022/01/07 01:54:43;;;;;;;22.02;8.70;;;2.70;99.90;;;;;;5079178;28;20101;-86
2022/01/07 01:57:09;;;;;;;14.05;7.82;;;2.70;99.90;;;;;;5095290;28;20494;-85
2022/01/07 01:59:35;;;;;;;18.63;8.55;;;2.70;99.90;;;;;;5123349;28;20064;-85
2022/01/07 02:02:01;;;;;;;11.45;8.85;;;2.60;99.90;;;;;;5118640;28;20036;-85
2022/01/07 02:04:26;;;;;;;17.00;8.68;;;2.60;99.90;;;;;;5075852;28;20068;-86
2022/01/07 02:06:53;;;;;;;17.92;7.93;;;2.70;99.90;;;;;;5071718;28;20036;-87
2022/01/07 02:09:24;;;;;;;15.95;9.63;;;2.70;99.90;;;;;;5085623;28;20040;-86
2022/01/07 02:11:49;;;;;;;17.20;8.82;;;2.70;99.90;;;;;;5080737;28;20071;-85
2022/01/07 02:14:15;;;;;;;21.42;10.25;;;2.70;99.90;;;;;;5093677;28;20098;-86
2022/01/07 02:16:41;;;;;;;24.58;10.27;;;2.70;99.90;;;;;;5110661;28;20060;-86
2022/01/07 02:19:06;;;;;;;16.20;9.10;;;2.70;99.90;;;;;;5088579;28;20044;-87
2022/01/07 02:21:36;;;;;;;18.58;9.75;;;2.80;99.90;;;;;;5102908;28;20036;-85
2022/01/07 02:24:03;;;;;;;17.38;7.00;;;2.70;99.90;;;;;;5092257;28;20119;-86
2022/01/07 02:26:33;;;;;;;11.63;7.78;;;2.70;99.90;;;;;;5101794;28;20470;-87
2022/01/07 02:28:58;;;;;;;;;;;2.70;99.90;;;;;;5075512;28;20046;-86
2022/01/07 02:31:24;;;;;;;14.52;8.82;;;2.70;99.90;;;;;;5109753;28;19919;-87
2022/01/07 02:33:50;;;;;;;13.15;7.65;;;2.60;99.90;;;;;;5110669;28;20085;-86
2022/01/07 02:36:15;;;;;;;12.02;7.78;;;2.70;99.90;;;;;;5108680;28;20039;-86
2022/01/07 02:38:41;;;;;;;9.93;7.85;;;2.70;99.90;;;;;;5095414;28;20419;-86
2022/01/07 02:41:06;;;;;;;17.00;9.60;;;2.70;99.90;;;;;;5098286;28;20408;-85
2022/01/07 02:43:32;;;;;;;15.13;9.40;;;2.60;99.90;;;;;;5104616;28;20135;-86
2022/01/07 02:45:58;;;;;;;18.80;9.45;;;2.50;99.90;;;;;;5101184;28;20060;-84
2022/01/07 02:48:24;;;;;;;15.57;7.78;;;2.50;99.90;;;;;;5071687;28;20040;-85
2022/01/07 02:50:50;;;;;;;22.02;10.05;;;2.60;99.90;;;;;;5105996;28;20163;-83
2022/01/07 02:53:15;;;;;;;14.30;8.77;;;2.50;99.90;;;;;;5101759;28;20119;-84
2022/01/07 02:55:41;;;;;;;23.55;10.82;;;2.50;99.90;;;;;;5105898;27;20404;-83
2022/01/07 02:58:07;;;;;;;14.18;9.23;;;2.60;99.90;;;;;;5095063;28;20039;-86
2022/01/07 03:00:34;;;;;;;15.38;8.63;;;2.60;99.90;;;;;;5075454;28;20163;-86
2022/01/07 03:03:03;;;;;;;16.85;10.20;;;2.70;99.90;;;;;;5080130;28;20078;-86
2022/01/07 03:05:28;;;;;;;14.68;9.93;;;2.50;99.90;;;;;;5094346;28;20447;-85
2022/01/07 03:07:54;;;;;;;13.27;8.93;;;2.60;99.90;;;;;;5097033;28;20057;-85
2022/01/07 03:10:26;;;;;;;15.43;8.48;;;2.50;99.90;;;;;;5097494;28;20041;-78
2022/01/07 03:12:55;;;;;;;14.90;10.85;;;2.60;99.90;;;;;;5095914;28;20440;-84
2022/01/07 03:15:21;;;;;;;15.10;9.93;;;2.60;99.90;;;;;;5093624;28;20122;-83
2022/01/07 03:17:47;;;;;;;19.90;10.57;;;2.70;99.90;;;;;;5102229;27;20047;-83
2022/01/07 03:20:15;;;;;;;16.90;8.98;;;2.70;99.90;;;;;;5111031;27;20382;-83
2022/01/07 03:22:42;;;;;;;17.90;10.60;;;2.70;99.90;;;;;;5087280;28;20036;-83
2022/01/07 03:25:08;;;;;;;17.95;10.07;;;2.70;99.90;;;;;;5103490;28;20126;-85
2022/01/07 03:27:34;;;;;;;14.30;11.55;;;2.70;99.90;;;;;;5109774;27;20048;-84
2022/01/07 03:30:00;;;;;;;21.05;10.10;;;2.70;99.90;;;;;;5080006;28;20144;-84
2022/01/07 03:32:26;;;;;;;15.95;9.48;;;2.70;99.90;;;;;;5107989;28;20165;-82
2022/01/07 03:34:52;;;;;;;19.65;12.15;;;2.60;99.90;;;;;;5108046;28;20059;-83
2022/01/07 03:37:18;;;;;;;18.85;11.10;;;2.70;99.90;;;;;;5113089;28;20046;-84
2022/01/07 03:39:44;;;;;;;19.23;10.93;;;2.80;99.90;;;;;;5078032;28;20040;-80
2022/01/07 03:42:09;;;;;;;17.75;11.02;;;2.70;99.90;;;;;;5076450;28;20474;-85
2022/01/07 03:44:35;;;;;;;16.88;10.15;;;2.70;99.90;;;;;;5074445;28;20135;-85
2022/01/07 03:47:01;;;;;;;15.07;10.48;;;2.70;99.90;;;;;;5093073;28;20105;-83
2022/01/07 03:49:27;;;;;;;14.95;10.07;;;2.80;99.90;;;;;;5085351;28;20055;-84
2022/01/07 03:51:52;;;;;;;15.88;10.85;;;2.70;99.90;;;;;;5111447;28;20047;-84
2022/01/07 03:54:18;;;;;;;13.32;10.57;;;2.70;99.90;;;;;;5073628;28;20086;-85
2022/01/07 03:56:44;;;;;;;14.02;10.65;;;2.80;99.90;;;;;;5080348;28;20056;-82
2022/01/07 03:59:09;;;;;;;14.68;10.93;;;2.80;99.90;;;;;;5094111;28;20123;-84
2022/01/07 04:01:35;;;;;;;20.63;11.98;;;2.80;99.90;;;;;;5083109;27;20047;-85
2022/01/07 04:04:01;;;;;;;12.23;9.52;;;2.70;99.90;;;;;;5100879;28;20044;-86
2022/01/07 04:06:26;;;;;;;19.05;10.60;;;2.80;99.90;;;;;;5108124;28;20036;-85
2022/01/07 04:08:52;;;;;;;14.57;10.18;;;2.70;99.90;;;;;;5092596;28;20541;-85
2022/01/07 04:11:18;;;;;;;14.10;9.10;;;2.70;99.90;;;;;;5096439;28;20035;-85
2022/01/07 04:13:44;;;;;;;15.23;8.85;;;2.80;99.90;;;;;;5111318;28;20173;-81
2022/01/07 04:16:11;;;;;;;16.23;10.75;;;2.70;99.90;;;;;;5105884;28;20093;-86
2022/01/07 04:18:36;;;;;;;13.68;10.48;;;2.70;99.90;;;;;;5097909;28;20376;-85
2022/01/07 04:21:02;;;;;;;15.40;10.77;;;2.80;99.90;;;;;;5094602;28;20054;-86
2022/01/07 04:23:28;;;;;;;18.63;9.80;;;2.80;99.90;;;;;;5096788;28;20056;-86
2022/01/07 04:25:53;;;;;;;17.85;10.70;;;2.80;99.90;;;;;;5075508;28;20165;-86
2022/01/07 04:28:20;;;;;;;12.00;9.00;;;2.80;99.90;;;;;;5074544;28;20029;-84
2022/01/07 04:30:46;;;;;;;20.20;9.68;;;2.80;99.90;;;;;;5102041;27;20041;-85
2022/01/07 04:33:14;;;;;;;13.95;9.73;;;2.80;99.90;;;;;;5085227;28;20085;-87
2022/01/07 04:35:42;;;;;;;15.00;9.95;;;2.90;99.90;;;;;;5109332;28;20091;-84
2022/01/07 04:38:08;;;;;;;13.00;10.18;;;2.80;99.90;;;;;;5102863;28;20036;-86
2022/01/07 04:40:34;;;;;;;12.52;10.40;;;2.80;99.90;;;;;;5108496;28;20454;-85
2022/01/07 04:43:02;;;;;;;14.68;10.68;;;2.80;99.90;;;;;;5100021;28;20075;-85
2022/01/07 04:45:28;;;;;;;17.02;10.88;;;2.80;99.90;;;;;;5073996;28;20123;-85
2022/01/07 04:47:53;;;;;;;13.63;11.40;;;3.00;99.90;;;;;;5092243;28;20521;-84
2022/01/07 04:50:20;;;;;;;12.90;11.60;;;3.00;99.90;;;;;;5096955;28;20486;-86
2022/01/07 04:52:46;;;;;;;22.17;14.75;;;3.00;99.90;;;;;;5076672;28;20086;-87
2022/01/07 04:55:18;;;;;;;13.63;10.38;;;3.00;99.90;;;;;;5074589;28;20060;-86
2022/01/07 04:57:45;;;;;;;18.92;11.45;;;3.00;99.90;;;;;;5099569;28;20055;-82
2022/01/07 05:00:12;;;;;;;17.80;10.95;;;3.00;99.90;;;;;;5075315;28;20052;-84
2022/01/07 05:02:37;;;;;;;11.98;9.93;;;3.00;99.90;;;;;;5111025;27;20048;-84
2022/01/07 05:05:03;;;;;;;16.50;11.88;;;2.90;99.90;;;;;;5085735;27;20559;-84
2022/01/07 05:07:29;;;;;;;20.27;12.18;;;3.00;99.90;;;;;;5101289;27;20042;-85
2022/01/07 05:09:55;;;;;;;20.48;10.57;;;3.00;99.90;;;;;;5090961;28;20048;-86
2022/01/07 05:12:20;;;;;;;17.38;11.95;;;2.90;99.90;;;;;;5094069;28;20090;-84
2022/01/07 05:14:46;;;;;;;14.50;10.18;;;2.90;99.90;;;;;;5079009;28;20397;-85
2022/01/07 05:17:11;;;;;;;16.48;10.63;;;3.00;99.90;;;;;;5105865;28;20046;-84
2022/01/07 05:19:37;;;;;;;14.80;10.82;;;3.10;99.90;;;;;;5110893;27;20068;-86
2022/01/07 05:22:03;;;;;;;16.17;10.27;;;3.00;99.90;;;;;;5074522;28;20050;-86
2022/01/07 05:24:28;;;;;;;17.45;11.27;;;3.00;99.90;;;;;;5098700;28;20046;-85
2022/01/07 05:26:54;;;;;;;14.48;9.85;;;3.00;99.90;;;;;;5105826;28;20039;-85
2022/01/07 05:29:19;;;;;;;16.05;10.82;;;3.00;99.90;;;;;;5104792;28;20323;-86
2022/01/07 05:31:45;;;;;;;15.80;11.60;;;3.10;99.90;;;;;;5112028;28;20046;-82
2022/01/07 05:34:11;;;;;;;19.25;11.48;;;3.10;99.90;;;;;;5108332;28;20123;-85
2022/01/07 05:36:38;;;;;;;16.75;11.60;;;3.10;99.90;;;;;;5094784;28;20382;-85
2022/01/07 05:39:05;;;;;;;16.35;11.27;;;3.10;99.90;;;;;;5074516;28;20067;-84
2022/01/07 05:41:32;;;;;;;15.05;12.13;;;3.10;99.90;;;;;;5094105;28;20055;-85
2022/01/07 05:43:57;;;;;;;13.05;10.02;;;3.10;99.90;;;;;;5093706;28;20040;-85
2022/01/07 05:46:23;;;;;;;15.43;11.85;;;3.10;99.90;;;;;;5093146;28;20121;-84
2022/01/07 05:48:48;;;;;;;18.48;10.82;;;3.20;99.90;;;;;;5078771;28;20575;-85
2022/01/07 05:51:15;;;;;;;12.43;9.88;;;3.10;99.90;;;;;;5089270;28;20092;-79
2022/01/07 05:53:41;;;;;;;14.82;10.85;;;3.10;99.90;;;;;;5123605;28;20046;-84
2022/01/07 05:56:07;;;;;;;15.82;10.60;;;3.20;99.90;;;;;;5112943;28;20040;-83
2022/01/07 05:58:33;;;;;;;12.90;10.70;;;3.20;99.90;;;;;;5116182;28;20089;-85
2022/01/07 06:00:59;;;;;;;13.88;11.77;;;3.20;99.90;;;;;;5117740;28;20043;-82
2022/01/07 06:03:25;;;;;;;12.60;10.52;;;3.20;99.90;;;;;;5103641;28;20080;-84
2022/01/07 06:05:50;;;;;;;15.57;11.10;;;3.20;99.90;;;;;;5118491;28;20047;-82
2022/01/07 06:08:16;;;;;;;13.73;11.00;;;3.20;99.90;;;;;;5108682;28;20085;-83
2022/01/07 06:10:42;;;;;;;17.10;10.60;;;3.20;99.90;;;;;;5084341;28;20254;-85
2022/01/07 06:13:07;;;;;;;12.63;11.02;;;3.10;99.90;;;;;;5080437;28;20443;-84
2022/01/07 06:15:33;;;;;;;15.30;11.25;;;3.10;99.90;;;;;;5104384;28;20536;-85
2022/01/07 06:17:59;;;;;;;16.17;12.13;;;3.10;99.90;;;;;;5092143;28;20028;-85
2022/01/07 06:20:25;;;;;;;12.60;9.98;;;3.10;99.90;;;;;;5087826;28;20056;-86
2022/01/07 06:22:51;;;;;;;15.95;12.32;;;3.10;99.90;;;;;;5089613;28;20040;-84
2022/01/07 06:25:17;;;;;;;14.00;10.93;;;3.20;99.90;;;;;;5092177;28;20471;-84
2022/01/07 06:27:43;;;;;;;15.90;13.35;;;3.10;99.90;;;;;;5105711;28;20035;-83
2022/01/07 06:30:09;;;;;;;14.73;11.30;;;3.10;99.90;;;;;;5082077;28;20393;-84
2022/01/07 06:32:35;;;;;;;17.10;12.98;;;3.20;99.90;;;;;;5104996;28;20042;-83
2022/01/07 06:35:01;;;;;;;15.07;12.10;;;3.30;99.90;;;;;;5088478;28;20036;-82
2022/01/07 06:37:27;;;;;;;16.33;13.02;;;3.30;99.90;;;;;;5094389;28;20481;-79
2022/01/07 06:39:53;;;;;;;21.27;13.55;;;3.30;99.90;;;;;;5094096;28;20044;-78
2022/01/07 06:42:19;;;;;;;19.75;13.18;;;3.20;99.90;;;;;;5094351;28;20072;-86
2022/01/07 06:44:44;;;;;;;16.88;11.73;;;3.30;99.90;;;;;;5103514;27;20089;-85
2022/01/07 06:47:10;;;;;;;15.98;12.77;;;3.30;99.90;;;;;;5108231;28;20042;-86
2022/01/07 06:49:37;;;;;;;15.95;14.25;;;3.30;99.90;;;;;;5099340;28;20039;-85
2022/01/07 06:52:03;;;;;;;19.08;14.45;;;3.30;99.90;;;;;;5105196;28;20068;-85
2022/01/07 06:54:29;;;;;;;18.77;13.80;;;3.40;99.90;;;;;;5097891;28;20066;-85
2022/01/07 06:56:54;;;;;;;15.70;14.07;;;3.40;99.90;;;;;;5115148;28;20472;-88
2022/01/07 06:59:20;;;;;;;17.10;13.20;;;3.40;99.90;;;;;;5111656;28;20036;-88
2022/01/07 07:01:47;;;;;;;15.65;13.65;;;3.40;99.90;;;;;;5099307;27;20130;-88
2022/01/07 07:04:15;;;;;;;18.85;13.85;;;3.50;99.90;;;;;;5113809;27;20047;-75
2022/01/07 07:06:41;;;;;;;15.80;13.95;;;3.40;99.90;;;;;;5100629;28;20081;-85
2022/01/07 07:09:07;;;;;;;20.00;14.52;;;3.40;99.90;;;;;;5112254;28;20040;-87
2022/01/07 07:11:34;;;;;;;17.60;14.80;;;3.50;99.90;;;;;;5093805;28;20448;-87
2022/01/07 07:13:59;;;;;;;18.02;15.48;;;3.40;99.90;;;;;;5078133;28;20058;-86
2022/01/07 07:16:26;;;;;;;15.88;14.25;;;3.40;99.90;;;;;;5114163;28;20466;-82
2022/01/07 07:18:52;;;;;;;24.33;14.88;;;3.40;99.90;;;;;;5111474;28;20042;-86
2022/01/07 07:21:17;;;;;;;28.92;16.25;;;3.40;99.90;;;;;;5091267;28;20490;-87
2022/01/07 07:23:43;;;;;;;19.67;16.45;;;3.30;99.90;;;;;;5094303;28;20051;-87
2022/01/07 07:26:09;;;;;;;21.88;16.65;;;3.40;99.90;;;;;;5088392;28;20046;-88
2022/01/07 07:28:36;;;;;;;20.95;15.63;;;3.40;99.90;;;;;;5094457;28;20119;-87
2022/01/07 07:31:10;;;;;;;24.30;17.60;;;3.40;99.90;;;;;;5093557;28;20035;-86
2022/01/07 07:36:31;;;;;;;26.17;17.63;;;3.50;99.90;;;;;;5086387;28;20047;-86
2022/01/07 07:38:58;;;;;;;26.00;17.40;;;3.50;99.90;;;;;;5093929;28;20119;-86
2022/01/07 07:41:25;;;;;;;25.63;19.25;;;3.50;99.90;;;;;;5074562;28;20055;-85
2022/01/07 07:43:50;;;;;;;27.92;16.05;;;3.50;99.90;;;;;;5089747;28;20079;-85
2022/01/07 07:46:20;;;;;;;29.23;16.58;;;3.50;99.90;;;;;;5096985;28;20078;-86
2022/01/07 07:48:47;;;;;;;26.23;18.73;;;3.50;99.90;;;;;;5076423;28;20044;-86
2022/01/07 07:51:14;;;;;;;22.00;17.20;;;3.50;99.90;;;;;;5082796;28;20044;-86
2022/01/07 07:53:39;;;;;;;29.20;18.25;;;3.50;99.90;;;;;;5079094;28;20039;-85
2022/01/07 07:56:05;;;;;;;20.08;16.17;;;3.50;99.90;;;;;;5096920;28;20103;-87
2022/01/07 07:58:31;;;;;;;25.48;19.85;;;3.50;99.90;;;;;;5093570;28;20088;-79
2022/01/07 08:00:57;;;;;;;31.02;19.23;;;3.60;99.90;;;;;;5090060;28;20055;-83
2022/01/07 08:03:24;;;;;;;36.30;19.30;;;3.60;99.90;;;;;;5060411;28;20375;-77
2022/01/07 08:05:49;;;;;;;28.23;18.92;;;3.60;99.90;;;;;;5092642;28;20036;-82
2022/01/07 08:08:15;;;;;;;32.97;19.23;;;3.50;99.90;;;;;;5107609;28;20047;-81
2022/01/07 08:10:47;;;;;;;42.55;21.20;;;3.60;99.90;;;;;;5092449;28;20123;-81
2022/01/07 08:16:02;;;;;;;35.00;19.83;;;3.70;99.90;;;;;;5103626;27;20039;-82
2022/01/07 08:18:38;;;;;;;30.98;19.30;;;3.70;99.90;;;;;;5096325;28;20039;-85
2022/01/07 08:21:09;;;;;;;25.88;18.90;;;3.60;99.90;;;;;;5104990;28;20497;-85
2022/01/07 08:23:37;;;;;;;33.65;19.90;;;3.70;99.90;;;;;;5097930;28;20043;-89
2022/01/07 08:26:07;;;;;;;30.38;20.55;;;3.70;99.90;;;;;;5115850;28;20059;-88
2022/01/07 08:28:38;;;;;;;35.53;21.27;;;3.70;99.90;;;;;;5111544;27;20040;-87
2022/01/07 08:36:20;;;;;;;33.97;20.75;;;3.90;99.90;;;;;;5089428;28;20561;-86
2022/01/07 08:38:47;;;;;;;29.17;21.13;;;3.90;99.90;;;;;;5081755;28;20055;-86
2022/01/07 08:41:13;;;;;;;35.80;21.63;;;4.00;99.90;;;;;;5081447;28;20114;-87
2022/01/07 08:43:39;;;;;;;29.70;20.77;;;3.90;99.90;;;;;;5073583;28;20055;-86
2022/01/07 08:46:06;;;;;;;28.65;20.98;;;4.00;99.90;;;;;;5093297;28;20044;-86
2022/01/07 08:48:33;;;;;;;27.98;20.73;;;4.00;99.90;;;;;;5104186;28;20119;-85
2022/01/07 08:50:59;;;;;;;40.28;22.27;;;4.10;99.90;;;;;;5087792;28;20044;-88
2022/01/07 08:53:25;;;;;;;27.55;19.58;;;4.00;99.90;;;;;;5080724;28;20036;-87
2022/01/07 08:55:51;;;;;;;28.80;20.38;;;4.00;99.90;;;;;;5105344;28;20472;-85
2022/01/07 08:58:17;;;;;;;39.40;20.77;;;4.00;99.90;;;;;;5113802;28;20044;-87
2022/01/07 09:00:43;;;;;;;33.08;20.92;;;4.00;99.90;;;;;;5108030;27;20032;-86
2022/01/07 09:03:08;;;;;;;35.42;22.92;;;4.00;99.90;;;;;;5076541;28;20044;-86
2022/01/07 09:05:34;;;;;;;28.67;23.05;;;4.10;99.90;;;;;;5106349;27;20046;-84
2022/01/07 09:08:00;;;;;;;27.33;21.15;;;4.10;99.90;;;;;;5096114;27;20489;-87
2022/01/07 09:10:26;;;;;;;29.95;19.42;;;4.10;99.90;;;;;;5084447;28;20107;-85
2022/01/07 09:12:52;;;;;;;53.75;22.77;;;4.10;99.90;;;;;;5105896;27;20040;-86
2022/01/07 09:15:18;;;;;;;33.28;21.90;;;4.20;99.90;;;;;;5096985;28;20039;-87
2022/01/07 09:17:43;;;;;;;32.88;21.92;;;4.20;99.90;;;;;;5079207;27;20118;-76
2022/01/07 09:20:10;;;;;;;33.40;20.55;;;4.20;99.90;;;;;;5117930;28;20040;-88
2022/01/07 09:22:36;;;;;;;37.30;22.15;;;4.20;99.90;;;;;;5128589;28;20036;-80
2022/01/07 09:25:05;;;;;;;32.20;21.00;;;4.20;99.90;;;;;;5098192;28;20050;-84
2022/01/07 09:27:31;;;;;;;30.15;22.33;;;4.20;99.90;;;;;;5115038;28;20092;-76
2022/01/07 09:29:57;;;;;;;37.85;22.20;;;4.30;99.90;;;;;;5126420;28;20038;-87
2022/01/07 09:32:23;;;;;;;29.38;19.70;;;4.30;99.90;;;;;;5119990;28;20095;-79
2022/01/07 09:34:49;;;;;;;26.88;15.98;;;4.20;99.90;;;;;;5103427;28;20055;-74
2022/01/07 09:37:14;;;;;;;26.38;15.35;;;4.30;99.90;;;;;;5098133;28;20078;-75
2022/01/07 09:39:40;;;;;;;15.68;12.02;;;4.30;99.90;;;;;;5106870;28;20083;-82
2022/01/07 09:42:07;;;;;;;18.45;12.75;;;4.30;99.90;;;;;;5088962;28;20046;-83
2022/01/07 09:44:37;;;;;;;19.10;10.85;;;4.30;99.90;;;;;;5100972;28;20063;-82
2022/01/07 09:47:03;;;;;;;;;;;4.20;99.90;;;;;;5116105;28;20024;-87
2022/01/07 09:49:33;;;;;;;13.50;7.53;;;4.20;99.90;;;;;;5112172;28;19927;-86
2022/01/07 09:51:59;;;;;;;10.88;6.53;;;4.10;99.90;;;;;;5112897;28;20047;-77
2022/01/07 09:54:24;;;;;;;10.20;6.85;;;4.10;99.90;;;;;;5116793;28;20032;-83
2022/01/07 09:56:51;;;;;;;8.80;6.38;;;4.10;99.90;;;;;;5103062;28;20018;-74
2022/01/07 09:59:17;;;;;;;10.90;7.90;;;3.90;99.90;;;;;;5122111;28;20028;-79
2022/01/07 10:01:56;;;;;;;15.18;8.57;;;3.90;99.90;;;;;;5108789;28;20092;-82
2022/01/07 10:04:26;;;;;;;12.13;7.82;;;3.90;99.90;;;;;;5128470;28;20043;-83
2022/01/07 10:07:19;;;;;;;13.43;9.38;;;3.90;99.90;;;;;;5120044;28;20068;-78
2022/01/07 10:10:06;;;;;;;11.75;5.93;;;4.00;99.90;;;;;;5119980;28;20023;-79
2022/01/07 10:12:49;;;;;;;12.30;4.97;;;4.00;99.90;;;;;;5106875;28;20087;-79
2022/01/07 10:15:26;;;;;;;10.00;3.83;;;4.00;99.90;;;;;;5104529;28;20040;-76
2022/01/07 10:17:58;;;;;;;6.05;2.38;;;4.10;99.90;;;;;;5130910;28;20035;-79
2022/01/07 10:20:30;;;;;;;7.40;2.15;;;4.30;99.90;;;;;;5116266;28;20039;-86
2022/01/07 10:23:05;;;;;;;5.75;2.00;;;4.50;99.90;;;;;;5122050;28;20042;-83
2022/01/07 10:25:33;;;;;;;5.35;2.13;;;4.50;99.90;;;;;;5119930;28;20049;-80
2022/01/07 10:28:05;;;;;;;11.10;1.75;;;4.40;99.90;;;;;;5133164;28;20047;-85
2022/01/07 10:30:41;;;;;;;7.95;2.05;;;4.20;99.90;;;;;;5110793;27;20039;-83
2022/01/07 10:33:23;;;;;;;5.97;3.15;;;4.20;99.90;;;;;;5110958;27;20055;-78
2022/01/07 10:35:54;;;;;;;8.20;2.53;;;4.00;99.90;;;;;;5097515;28;20035;-77
2022/01/07 10:38:23;;;;;;;6.60;2.08;;;4.10;99.90;;;;;;5096308;28;20043;-75
2022/01/07 10:40:50;;;;;;;9.27;3.00;;;4.00;99.90;;;;;;5107478;28;20050;-79
2022/01/07 10:43:36;;;;;;;8.55;2.75;;;4.00;99.90;;;;;;5099051;27;20048;-78
2022/01/07 10:46:10;;;;;;;6.53;1.88;;;4.00;99.90;;;;;;5087252;28;20044;-82
2022/01/07 10:48:40;;;;;;;4.53;2.33;;;4.10;99.90;;;;;;5075924;28;20131;-84
2022/01/07 10:51:14;;;;;;;8.77;3.03;;;4.10;99.90;;;;;;5115862;28;20048;-82
2022/01/07 10:53:41;;;;;;;10.30;3.15;;;4.10;99.90;;;;;;5104043;28;20043;-83
2022/01/07 10:56:53;;;;;;;13.10;4.20;;;4.10;99.90;;;;;;5097170;28;20036;-79
2022/01/07 10:59:20;;;;;;;12.70;4.13;;;4.10;99.90;;;;;;5091754;28;20052;-78
2022/01/07 11:01:56;;;;;;;17.48;7.22;;;4.20;99.90;;;;;;5103996;28;20047;-80
2022/01/07 11:04:26;;;;;;;12.75;6.32;;;4.20;99.90;;;;;;5093010;28;20096;-77
2022/01/07 11:06:53;;;;;;;12.30;6.82;;;4.30;99.90;;;;;;5103003;28;20070;-77
2022/01/07 11:09:20;;;;;;;18.55;6.43;;;4.40;99.90;;;;;;5091544;28;20052;-78
2022/01/07 11:11:57;;;;;;;13.45;7.13;;;4.50;99.90;;;;;;5096054;27;20529;-78
2022/01/07 11:14:25;;;;;;;18.52;8.13;;;4.60;99.90;;;;;;5089593;28;20035;-81
2022/01/07 11:16:53;;;;;;;15.18;6.15;;;4.70;99.90;;;;;;5097181;28;20039;-76
2022/01/07 11:19:21;;;;;;;15.20;7.30;;;4.60;99.90;;;;;;5094747;28;20043;-78
2022/01/07 11:21:50;;;;;;;19.48;7.38;;;4.80;99.90;;;;;;5092667;28;20071;-75
2022/01/07 11:24:50;;;;;;;11.55;6.80;;;4.80;99.90;;;;;;5082965;28;20074;-83
2022/01/07 11:27:17;;;;;;;;;;;5.00;99.90;;;;;;5078342;28;20056;-84
2022/01/07 11:29:51;;;;;;;19.52;7.65;;;5.00;99.90;;;;;;5082471;28;19977;-85
2022/01/07 11:32:25;;;;;;;12.30;7.25;;;5.10;99.90;;;;;;5107977;28;20062;-87
2022/01/07 11:35:16;;;;;;;14.90;8.30;;;5.00;99.90;;;;;;5089638;28;20107;-86
2022/01/07 11:38:03;;;;;;;16.67;9.02;;;4.90;99.90;;;;;;5100880;28;20088;-87
2022/01/07 11:40:31;;;;;;;15.43;8.25;;;4.80;99.90;;;;;;5089379;28;20054;-88
2022/01/07 11:42:59;;;;;;;17.40;9.57;;;4.80;99.90;;;;;;5097355;28;20052;-88
2022/01/07 11:45:38;;;;;;;18.92;9.85;;;4.80;99.90;;;;;;5083849;28;20079;-85
2022/01/07 11:48:26;;;;;;;15.73;7.13;;;4.90;99.90;;;;;;5108062;28;20044;-90
2022/01/07 11:50:54;;;;;;;17.35;9.13;;;4.90;99.90;;;;;;5058536;28;20506;-88
2022/01/07 11:53:21;;;;;;;20.98;11.90;;;5.00;99.90;;;;;;5105028;28;20398;-87
2022/01/07 11:55:46;;;;;;;19.70;10.65;;;5.00;99.90;;;;;;5100948;27;20074;-85
2022/01/07 11:58:13;;;;;;;36.08;10.80;;;5.10;99.90;;;;;;5105046;28;20101;-87
2022/01/07 12:01:00;;;;;;;26.20;10.77;;;5.20;99.90;;;;;;5104578;28;20047;-88
2022/01/07 12:03:43;;;;;;;17.75;9.05;;;5.20;99.90;;;;;;5099671;28;20051;-88
2022/01/07 12:06:23;;;;;;;15.43;8.52;;;5.30;99.90;;;;;;5078141;28;20048;-89
2022/01/07 12:09:08;;;;;;;17.98;9.18;;;5.50;99.90;;;;;;5094323;28;20060;-89
2022/01/07 12:11:51;;;;;;;11.70;4.70;;;5.40;99.90;;;;;;5085211;28;20051;-88
2022/01/07 12:14:22;;;;;;;10.60;4.70;;;5.30;99.90;;;;;;5087417;28;20083;-85
2022/01/07 12:16:51;;;;;;;13.30;4.65;;;5.40;99.90;;;;;;5099147;28;20085;-89
2022/01/07 12:19:17;;;;;;;12.63;3.88;;;5.40;99.90;;;;;;5073404;28;20090;-85
2022/01/07 12:21:50;;;;;;;14.32;4.03;;;5.50;99.90;;;;;;5083939;28;20492;-86
2022/01/07 12:24:20;;;;;;;8.63;2.70;;;5.50;99.90;;;;;;5101691;28;20055;-85
2022/01/07 12:26:46;;;;;;;12.57;3.60;;;5.40;99.90;;;;;;5098068;28;20042;-87
2022/01/07 12:29:17;;;;;;;8.98;2.60;;;5.40;99.90;;;;;;5077287;28;20421;-86
2022/01/07 12:31:53;;;;;;;9.07;2.78;;;5.30;99.90;;;;;;5106019;28;20094;-87
2022/01/07 12:34:32;;;;;;;13.85;5.35;;;5.40;99.90;;;;;;5092916;28;20059;-87
2022/01/07 12:37:03;;;;;;;8.60;2.35;;;5.20;99.90;;;;;;5092972;28;20401;-85
2022/01/07 12:39:34;;;;;;;9.50;2.25;;;5.20;99.90;;;;;;5093725;28;20036;-87
2022/01/07 12:42:00;;;;;;;14.35;2.58;;;5.10;99.90;;;;;;5075118;28;20048;-86
2022/01/07 12:44:32;;;;;;;9.93;2.92;;;5.10;99.90;;;;;;5102671;28;20055;-77
2022/01/07 12:46:58;;;;;;;15.88;2.72;;;5.30;99.90;;;;;;5092103;28;20048;-86
2022/01/07 12:49:41;;;;;;;15.88;2.28;;;5.30;99.90;;;;;;5088775;28;20047;-84
2022/01/07 12:52:15;;;;;;;10.45;3.22;;;5.20;99.90;;;;;;5090121;28;20044;-85
2022/01/07 12:55:00;;;;;;;10.45;2.70;;;5.20;99.90;;;;;;5095236;27;20132;-86
2022/01/07 12:57:47;;;;;;;16.95;3.70;;;5.10;99.90;;;;;;5097135;28;20044;-85